createdAt,value
2019-02-15T00:01:58.754Z,37.80
2019-02-15T00:04:25.074Z,37.77
2019-02-15T00:06:51.448Z,36.80
2019-02-15T00:09:17.780Z,35.00
2019-02-15T00:11:44.135Z,37.40
2019-02-15T00:14:10.473Z,36.53
2019-02-15T00:16:36.865Z,37.20
2019-02-15T00:19:16.885Z,36.90
2019-02-15T00:21:43.273Z,38.20
2019-02-15T00:24:09.662Z,34.03
2019-02-15T00:26:36.032Z,38.07
2019-02-15T00:29:02.506Z,35.37
2019-02-15T00:31:29.872Z,35.47
2019-02-15T00:33:56.381Z,38.60
2019-02-15T00:36:22.734Z,33.77
2019-02-15T00:38:49.096Z,35.23
2019-02-15T00:41:15.512Z,34.00
2019-02-15T00:43:41.881Z,36.03
2019-02-15T00:46:15.967Z,33.83
2019-02-15T00:48:42.413Z,36.13
2019-02-15T00:51:13.856Z,35.37
2019-02-15T00:53:44.948Z,35.93
2019-02-15T00:56:30.155Z,36.37
2019-02-15T00:59:16.505Z,35.67
2019-02-15T01:01:50.580Z,35.60
2019-02-15T01:04:21.979Z,35.40
2019-02-15T01:06:59.306Z,35.27
2019-02-15T01:09:27.613Z,32.93
2019-02-15T01:11:58.416Z,35.60
2019-02-15T01:14:24.895Z,35.90
2019-02-15T01:16:51.278Z,35.37
2019-02-15T01:19:17.695Z,35.47
2019-02-15T01:21:44.184Z,34.23
2019-02-15T01:24:10.591Z,34.87
2019-02-15T01:26:47.822Z,35.53
2019-02-15T01:29:25.196Z,35.97
2019-02-15T01:31:59.619Z,34.50
2019-02-15T01:34:27.991Z,35.33
2019-02-15T01:36:56.351Z,33.40
2019-02-15T01:39:24.686Z,34.03
2019-02-15T01:41:55.510Z,34.50
2019-02-15T01:44:23.760Z,33.40
2019-02-15T01:46:52.063Z,33.77
2019-02-15T01:49:18.454Z,38.13
2019-02-15T01:51:44.870Z,35.90
2019-02-15T01:54:11.303Z,36.13
2019-02-15T01:56:37.658Z,36.30
2019-02-15T01:59:04.088Z,36.83
2019-02-15T02:01:30.424Z,36.83
2019-02-15T02:03:57.883Z,36.80
2019-02-15T02:06:27.406Z,35.83
2019-02-15T02:08:53.877Z,34.40
2019-02-15T02:11:20.229Z,36.67
2019-02-15T02:13:49.659Z,35.83
2019-02-15T02:16:14.814Z,35.13
2019-02-15T02:18:41.232Z,37.77
2019-02-15T02:21:07.677Z,39.73
2019-02-15T02:23:34.179Z,39.03
2019-02-15T02:26:00.569Z,39.83
2019-02-15T02:28:26.897Z,39.33
2019-02-15T02:30:53.280Z,38.83
2019-02-15T02:33:19.661Z,37.03
2019-02-15T02:35:46.134Z,36.93
2019-02-15T02:38:13.805Z,38.27
2019-02-15T02:40:40.214Z,45.00
2019-02-15T02:43:06.569Z,49.27
2019-02-15T02:45:32.982Z,46.57
2019-02-15T02:47:59.844Z,43.03
2019-02-15T02:50:26.243Z,44.00
2019-02-15T02:52:52.685Z,42.33
2019-02-15T02:55:19.062Z,43.83
2019-02-15T02:57:45.552Z,46.80
2019-02-15T03:00:11.900Z,49.30
2019-02-15T03:02:38.494Z,49.50
2019-02-15T03:05:05.853Z,45.93
2019-02-15T03:07:32.316Z,44.60
2019-02-15T03:09:58.669Z,43.13
2019-02-15T03:12:25.077Z,42.17
2019-02-15T03:14:51.392Z,42.17
2019-02-15T03:17:17.766Z,41.63
2019-02-15T03:19:44.133Z,44.97
2019-02-15T03:22:10.468Z,45.47
2019-02-15T03:24:36.869Z,42.07
2019-02-15T03:27:03.223Z,43.73
2019-02-15T03:29:29.590Z,40.27
2019-02-15T03:31:56.942Z,43.13
2019-02-15T03:34:23.343Z,39.90
2019-02-15T03:36:51.593Z,39.83
2019-02-15T03:39:19.856Z,41.90
2019-02-15T03:41:46.203Z,41.37
2019-02-15T03:44:21.811Z,38.97
2019-02-15T03:46:40.745Z,42.37
2019-02-15T03:49:07.225Z,42.53
2019-02-15T03:51:33.629Z,40.57
2019-02-15T03:53:59.977Z,41.27
2019-02-15T03:56:26.332Z,38.53
2019-02-15T03:58:52.820Z,38.20
2019-02-15T04:01:19.580Z,40.23
2019-02-15T04:03:46.032Z,40.70
2019-02-15T04:06:12.421Z,41.33
2019-02-15T04:08:38.775Z,39.53
2019-02-15T04:11:05.104Z,40.43
2019-02-15T04:13:31.489Z,41.23
2019-02-15T04:15:57.883Z,40.77
2019-02-15T04:18:24.540Z,40.87
2019-02-15T04:20:51.364Z,39.90
2019-02-15T04:23:17.780Z,39.03
2019-02-15T04:25:44.159Z,41.07
2019-02-15T04:28:10.571Z,43.80
2019-02-15T04:30:36.999Z,38.23
2019-02-15T04:33:03.324Z,40.57
2019-02-15T04:35:29.694Z,41.60
2019-02-15T04:37:56.086Z,39.80
2019-02-15T04:40:22.497Z,44.53
2019-02-15T04:42:48.848Z,45.57
2019-02-15T04:45:15.265Z,43.37
2019-02-15T04:47:41.612Z,45.33
2019-02-15T04:50:08.164Z,45.47
2019-02-15T04:52:34.553Z,48.47
2019-02-15T04:55:00.889Z,48.43
2019-02-15T04:57:27.279Z,54.03
2019-02-15T04:59:53.639Z,52.57
2019-02-15T05:02:20.036Z,59.67
2019-02-15T05:04:46.413Z,58.27
2019-02-15T05:07:12.893Z,63.27
2019-02-15T05:09:39.218Z,58.80
2019-02-15T05:12:05.589Z,51.53
2019-02-15T05:14:31.917Z,50.97
2019-02-15T05:16:58.371Z,50.77
2019-02-15T05:19:24.737Z,48.20
2019-02-15T05:21:51.092Z,49.23
2019-02-15T05:24:17.536Z,52.00
2019-02-15T05:26:43.902Z,52.27
2019-02-15T05:29:10.326Z,49.50
2019-02-15T05:31:36.672Z,48.73
2019-02-15T05:34:03.084Z,54.00
2019-02-15T05:36:29.454Z,68.17
2019-02-15T05:38:55.849Z,80.00
2019-02-15T05:41:22.188Z,79.37
2019-02-15T05:43:49.462Z,78.37
2019-02-15T05:46:15.841Z,75.83
2019-02-15T05:48:42.293Z,67.33
2019-02-15T05:51:08.933Z,58.70
2019-02-15T05:53:35.377Z,64.10
2019-02-15T05:56:01.767Z,63.00
2019-02-15T05:58:28.160Z,67.20
2019-02-15T06:00:54.532Z,72.80
2019-02-15T06:03:20.909Z,77.07
2019-02-15T06:05:47.297Z,78.60
2019-02-15T06:08:13.696Z,76.03
2019-02-15T06:10:40.016Z,86.43
2019-02-15T06:13:06.434Z,92.97
2019-02-15T06:15:32.794Z,86.97
2019-02-15T06:17:59.257Z,91.33
2019-02-15T06:20:25.566Z,90.97
2019-02-15T06:22:52.036Z,88.10
2019-02-15T06:25:19.106Z,75.50
2019-02-15T06:27:45.471Z,79.17
2019-02-15T06:30:12.764Z,80.30
2019-02-15T06:32:39.298Z,77.57
2019-02-15T06:35:05.680Z,73.90
2019-02-15T06:37:32.083Z,76.47
2019-02-15T06:39:58.482Z,81.20
2019-02-15T06:42:24.904Z,83.17
2019-02-15T06:44:51.419Z,86.23
2019-02-15T06:47:17.849Z,86.07
2019-02-15T06:49:44.784Z,83.83
2019-02-15T06:52:11.179Z,85.23
2019-02-15T06:54:37.539Z,97.20
2019-02-15T06:57:03.937Z,89.30
2019-02-15T06:59:35.214Z,88.60
2019-02-15T07:02:03.427Z,81.00
2019-02-15T07:04:34.819Z,88.77
2019-02-15T07:07:01.200Z,102.23
2019-02-15T07:09:27.569Z,99.40
2019-02-15T07:11:53.916Z,75.13
2019-02-15T07:14:20.956Z,70.57
2019-02-15T07:16:47.419Z,65.63
2019-02-15T07:19:13.805Z,68.43
2019-02-15T07:21:40.155Z,69.90
2019-02-15T07:24:06.620Z,71.20
2019-02-15T07:26:32.951Z,71.23
2019-02-15T07:28:59.391Z,77.00
2019-02-15T07:31:25.688Z,78.70
2019-02-15T07:33:52.121Z,82.37
2019-02-15T07:36:18.502Z,80.77
2019-02-15T07:38:44.921Z,74.93
2019-02-15T07:41:11.314Z,63.87
2019-02-15T07:43:37.706Z,67.40
2019-02-15T07:46:04.028Z,72.13
2019-02-15T07:48:30.392Z,68.63
2019-02-15T07:50:56.895Z,69.03
2019-02-15T07:53:23.249Z,70.67
2019-02-15T07:55:49.619Z,68.63
2019-02-15T07:58:16.095Z,68.03
2019-02-15T08:00:42.612Z,62.67
2019-02-15T08:03:09.033Z,70.23
2019-02-15T08:05:35.396Z,72.83
2019-02-15T08:08:01.820Z,68.53
2019-02-15T08:10:28.190Z,78.60
2019-02-15T08:12:54.580Z,64.77
2019-02-15T08:15:20.937Z,61.87
2019-02-15T08:17:47.351Z,61.97
2019-02-15T08:20:13.693Z,62.97
2019-02-15T08:22:40.090Z,66.50
2019-02-15T08:25:07.882Z,60.03
2019-02-15T08:27:34.268Z,61.73
2019-02-15T08:30:00.678Z,65.67
2019-02-15T08:32:27.202Z,65.63
2019-02-15T08:34:53.649Z,62.77
2019-02-15T08:37:20.872Z,61.03
2019-02-15T08:39:47.488Z,60.47
2019-02-15T08:42:13.829Z,62.40
2019-02-15T08:44:40.203Z,58.97
2019-02-15T08:47:06.596Z,56.47
2019-02-15T08:49:33.046Z,60.67
2019-02-15T08:51:59.485Z,59.47
2019-02-15T08:54:25.832Z,59.40
2019-02-15T08:56:52.273Z,58.13
2019-02-15T08:59:18.654Z,52.30
2019-02-15T09:01:47.014Z,53.63
2019-02-15T09:04:13.441Z,58.70
2019-02-15T09:06:40.796Z,58.23
2019-02-15T09:09:08.427Z,61.23
2019-02-15T09:11:34.997Z,53.23
2019-02-15T09:14:01.452Z,56.60
2019-02-15T09:16:27.841Z,58.43
2019-02-15T09:18:54.287Z,59.40
2019-02-15T09:21:20.611Z,54.50
2019-02-15T09:23:47.008Z,58.30
2019-02-15T09:26:18.136Z,57.00
2019-02-15T09:28:43.496Z,56.37
2019-02-15T09:31:09.994Z,55.90
2019-02-15T09:33:36.360Z,59.70
2019-02-15T09:36:02.796Z,62.87
2019-02-15T09:38:30.321Z,62.97
2019-02-15T09:40:57.751Z,67.37
2019-02-15T09:43:24.192Z,75.80
2019-02-15T09:45:50.583Z,78.20
2019-02-15T09:48:17.015Z,90.17
2019-02-15T09:50:43.506Z,117.37
2019-02-15T09:53:09.978Z,70.37
2019-02-15T09:55:36.344Z,73.07
2019-02-15T09:58:02.843Z,62.13
2019-02-15T10:00:29.190Z,65.03
2019-02-15T10:02:55.559Z,79.50
2019-02-15T10:05:21.915Z,65.37
2019-02-15T10:07:48.474Z,69.33
2019-02-15T10:10:14.931Z,56.93
2019-02-15T10:12:41.423Z,46.43
2019-02-15T10:15:09.531Z,48.97
2019-02-15T10:17:35.872Z,46.70
2019-02-15T10:20:06.555Z,45.50
2019-02-15T10:22:32.905Z,50.67
2019-02-15T10:24:59.317Z,53.67
2019-02-15T10:27:25.720Z,64.10
2019-02-15T10:29:53.086Z,60.83
2019-02-15T10:32:19.677Z,51.67
2019-02-15T10:34:46.098Z,64.43
2019-02-15T10:37:12.530Z,53.83
2019-02-15T10:39:38.949Z,65.03
2019-02-15T10:42:05.344Z,52.03
2019-02-15T10:44:31.725Z,59.13
2019-02-15T10:46:58.109Z,60.50
2019-02-15T10:49:24.676Z,71.00
2019-02-15T10:51:51.035Z,55.40
2019-02-15T10:54:17.453Z,51.97
2019-02-15T10:56:43.923Z,55.23
2019-02-15T10:59:11.345Z,57.67
2019-02-15T11:01:37.740Z,66.47
2019-02-15T11:04:04.106Z,76.50
2019-02-15T11:06:30.579Z,74.17
2019-02-15T11:08:57.005Z,66.77
2019-02-15T11:11:23.454Z,77.00
2019-02-15T11:13:49.861Z,61.43
2019-02-15T11:16:16.216Z,59.03
2019-02-15T11:18:42.596Z,55.47
2019-02-15T11:21:09.011Z,52.73
2019-02-15T11:23:35.453Z,54.10
2019-02-15T11:26:01.975Z,55.03
2019-02-15T11:28:28.917Z,54.03
2019-02-15T11:30:55.305Z,55.20
2019-02-15T11:33:21.672Z,59.53
2019-02-15T11:35:48.046Z,72.73
2019-02-15T11:38:14.427Z,69.90
2019-02-15T11:40:40.800Z,72.17
2019-02-15T11:43:07.303Z,66.57
2019-02-15T11:45:33.790Z,63.43
2019-02-15T11:48:00.152Z,66.93
2019-02-15T11:50:26.652Z,79.37
2019-02-15T11:52:53.038Z,67.43
2019-02-15T11:55:19.435Z,85.17
2019-02-15T11:57:45.814Z,99.03
2019-02-15T12:00:17.799Z,90.13
2019-02-15T12:02:43.922Z,76.03
2019-02-15T12:05:10.383Z,83.97
2019-02-15T12:07:36.782Z,89.17
2019-02-15T12:10:06.087Z,67.20
2019-02-15T12:12:33.493Z,72.60
2019-02-15T12:14:59.913Z,77.17
2019-02-15T12:17:26.291Z,67.13
2019-02-15T12:19:52.678Z,51.97
2019-02-15T12:22:19.038Z,71.50
2019-02-15T12:24:46.555Z,51.67
2019-02-15T12:27:13.913Z,48.07
2019-02-15T12:29:41.180Z,49.90
2019-02-15T12:32:07.652Z,54.37
2019-02-15T12:34:34.048Z,56.73
2019-02-15T12:37:00.676Z,50.53
2019-02-15T12:39:27.136Z,58.83
2019-02-15T12:41:53.454Z,71.23
2019-02-15T12:44:19.850Z,53.33
2019-02-15T12:46:46.272Z,54.43
2019-02-15T12:49:12.713Z,51.53
2019-02-15T12:51:39.159Z,56.97
2019-02-15T12:54:05.572Z,46.80
2019-02-15T12:56:32.044Z,63.77
2019-02-15T12:58:58.381Z,70.73
2019-02-15T13:01:24.830Z,68.17
2019-02-15T13:03:51.168Z,47.00
2019-02-15T13:06:17.571Z,41.47
2019-02-15T13:08:44.028Z,39.60
2019-02-15T13:11:10.423Z,52.87
2019-02-15T13:13:36.845Z,50.90
2019-02-15T13:16:03.241Z,44.40
2019-02-15T13:18:29.629Z,40.70
2019-02-15T13:20:56.006Z,47.53
2019-02-15T13:23:22.439Z,44.83
2019-02-15T13:25:48.785Z,42.13
2019-02-15T13:28:15.187Z,49.13
2019-02-15T13:30:41.586Z,47.80
2019-02-15T13:33:07.971Z,46.07
2019-02-15T13:35:34.354Z,46.20
2019-02-15T13:38:01.725Z,40.00
2019-02-15T13:40:28.152Z,37.40
2019-02-15T13:42:54.534Z,39.27
2019-02-15T13:45:20.915Z,37.83
2019-02-15T13:47:47.334Z,40.87
2019-02-15T13:50:14.926Z,38.63
2019-02-15T13:52:41.303Z,39.13
2019-02-15T13:55:08.988Z,40.60
2019-02-15T13:57:36.466Z,39.33
2019-02-15T14:00:06.003Z,39.50
2019-02-15T14:02:32.559Z,40.10
2019-02-15T14:04:58.974Z,38.90
2019-02-15T14:07:25.418Z,39.97
2019-02-15T14:09:51.887Z,39.07
2019-02-15T14:12:18.302Z,38.20
2019-02-15T14:14:44.791Z,37.20
2019-02-15T14:17:11.156Z,46.07
2019-02-15T14:19:37.607Z,52.00
2019-02-15T14:22:03.927Z,44.63
2019-02-15T14:24:30.415Z,45.33
2019-02-15T14:26:57.855Z,45.83
2019-02-15T14:29:24.278Z,47.47
2019-02-15T14:31:50.632Z,56.00
2019-02-15T14:34:17.039Z,77.67
2019-02-15T14:36:43.511Z,58.33
2019-02-15T14:39:11.206Z,45.20
2019-02-15T14:41:37.617Z,37.63
2019-02-15T14:44:05.098Z,36.73
2019-02-15T14:46:31.608Z,40.63
2019-02-15T14:48:58.689Z,43.80
2019-02-15T14:51:25.037Z,44.40
2019-02-15T14:53:51.403Z,42.77
2019-02-15T14:56:17.792Z,38.57
2019-02-15T14:58:44.197Z,40.60
2019-02-15T15:01:10.549Z,39.60
2019-02-15T15:03:36.992Z,37.53
2019-02-15T15:06:03.357Z,38.73
2019-02-15T15:08:30.790Z,40.03
2019-02-15T15:10:57.270Z,44.33
2019-02-15T15:13:23.741Z,47.23
2019-02-15T15:15:50.269Z,56.63
2019-02-15T15:18:16.627Z,52.83
2019-02-15T15:20:43.062Z,59.70
2019-02-15T15:23:09.394Z,60.63
2019-02-15T15:25:35.778Z,69.33
2019-02-15T15:28:02.152Z,54.20
2019-02-15T15:30:28.657Z,40.70
2019-02-15T15:32:55.027Z,34.80
2019-02-15T15:35:21.384Z,32.93
2019-02-15T15:37:47.729Z,36.73
2019-02-15T15:40:15.802Z,36.00
2019-02-15T15:42:42.208Z,36.63
2019-02-15T15:45:10.264Z,36.70
2019-02-15T15:47:36.696Z,36.90
2019-02-15T15:50:04.178Z,37.93
2019-02-15T15:52:30.590Z,37.03
2019-02-15T15:54:57.021Z,34.87
2019-02-15T15:57:23.392Z,34.03
2019-02-15T15:59:49.779Z,34.87
2019-02-15T16:02:18.392Z,37.37
2019-02-15T16:04:44.311Z,37.37
2019-02-15T16:07:10.677Z,42.70
2019-02-15T16:09:38.161Z,51.73
2019-02-15T16:12:04.625Z,54.00
2019-02-15T16:14:30.986Z,68.83
2019-02-15T16:16:57.375Z,79.70
2019-02-15T16:19:23.745Z,83.63
2019-02-15T16:21:50.109Z,70.17
2019-02-15T16:24:16.515Z,67.40
2019-02-15T16:26:42.924Z,49.10
2019-02-15T16:29:09.305Z,38.07
2019-02-15T16:31:35.716Z,48.03
2019-02-15T16:34:02.108Z,42.67
2019-02-15T16:36:28.453Z,40.17
2019-02-15T16:38:54.913Z,50.40
2019-02-15T16:41:24.061Z,57.83
2019-02-15T16:43:50.465Z,41.00
2019-02-15T16:46:17.701Z,40.23
2019-02-15T16:48:44.154Z,44.17
2019-02-15T16:51:10.504Z,35.90
2019-02-15T16:53:36.968Z,41.23
2019-02-15T16:56:03.447Z,39.27
2019-02-15T16:58:29.832Z,37.37
2019-02-15T17:00:56.222Z,38.10
2019-02-15T17:03:22.673Z,33.63
2019-02-15T17:05:49.027Z,36.07
2019-02-15T17:08:15.458Z,41.40
2019-02-15T17:10:41.853Z,37.17
2019-02-15T17:13:08.231Z,44.30
2019-02-15T17:15:34.665Z,37.70
2019-02-15T17:18:01.043Z,39.13
2019-02-15T17:20:27.435Z,35.97
2019-02-15T17:22:53.921Z,41.07
2019-02-15T17:25:20.298Z,39.37
2019-02-15T17:27:46.721Z,54.53
2019-02-15T17:30:13.088Z,60.93
2019-02-15T17:32:39.609Z,47.30
2019-02-15T17:35:08.099Z,49.40
2019-02-15T17:37:35.536Z,47.50
2019-02-15T17:40:04.377Z,46.10
2019-02-15T17:42:31.929Z,47.63
2019-02-15T17:44:58.378Z,54.67
2019-02-15T17:47:24.875Z,67.37
2019-02-15T17:49:51.246Z,55.13
2019-02-15T17:52:17.637Z,55.53
2019-02-15T17:54:44.005Z,76.33
2019-02-15T17:57:10.435Z,66.73
2019-02-15T17:59:36.898Z,77.07
2019-02-15T18:02:03.979Z,65.60
2019-02-15T18:04:30.373Z,80.17
2019-02-15T18:06:56.765Z,48.50
2019-02-15T18:09:23.099Z,54.30
2019-02-15T18:11:49.479Z,72.67
2019-02-15T18:14:15.879Z,50.97
2019-02-15T18:16:42.248Z,46.07
2019-02-15T18:19:10.338Z,51.97
2019-02-15T18:21:37.050Z,69.93
2019-02-15T18:24:03.534Z,87.63
2019-02-15T18:26:29.983Z,86.93
2019-02-15T18:28:56.390Z,85.90
2019-02-15T18:31:23.614Z,69.87
2019-02-15T18:33:51.129Z,68.33
2019-02-15T18:36:18.705Z,57.13
2019-02-15T18:38:45.216Z,53.23
2019-02-15T18:41:13.752Z,64.17
2019-02-15T18:43:41.117Z,88.20
2019-02-15T18:46:07.907Z,47.27
2019-02-15T18:48:35.209Z,57.63
2019-02-15T18:51:02.678Z,64.07
2019-02-15T18:53:29.113Z,58.97
2019-02-15T18:55:55.549Z,61.63
2019-02-15T18:58:21.908Z,73.13
2019-02-15T19:00:48.352Z,68.60
2019-02-15T19:03:15.354Z,46.00
2019-02-15T19:05:41.927Z,44.30
2019-02-15T19:08:08.752Z,35.13
2019-02-15T19:10:35.203Z,37.47
2019-02-15T19:13:01.635Z,42.13
2019-02-15T19:15:28.120Z,38.47
2019-02-15T19:17:54.539Z,44.53
2019-02-15T19:20:21.409Z,52.10
2019-02-15T19:22:49.020Z,52.23
2019-02-15T19:25:18.316Z,54.03
2019-02-15T19:27:45.446Z,66.13
2019-02-15T19:30:20.669Z,80.23
2019-02-15T19:32:48.246Z,48.30
2019-02-15T19:35:16.219Z,41.40
2019-02-15T19:37:42.644Z,38.30
2019-02-15T19:40:11.696Z,37.77
2019-02-15T19:42:39.298Z,41.40
2019-02-15T19:45:09.202Z,50.07
2019-02-15T19:47:35.968Z,61.27
2019-02-15T19:50:05.122Z,68.20
2019-02-15T19:52:32.855Z,70.30
2019-02-15T19:55:00.039Z,52.37
2019-02-15T19:57:26.759Z,48.87
2019-02-15T19:59:54.239Z,50.63
2019-02-15T20:02:21.725Z,56.13
2019-02-15T20:04:48.505Z,53.20
2019-02-15T20:07:14.872Z,64.77
2019-02-15T20:09:44.364Z,81.50
2019-02-15T20:12:11.733Z,59.33
2019-02-15T20:14:38.244Z,56.40
2019-02-15T20:17:05.643Z,59.60
2019-02-15T20:19:32.676Z,65.50
2019-02-15T20:21:59.406Z,72.23
2019-02-15T20:24:25.814Z,55.47
2019-02-15T20:26:52.229Z,67.20
2019-02-15T20:29:18.642Z,58.83
2019-02-15T20:31:45.175Z,67.83
2019-02-15T20:34:12.422Z,67.27
2019-02-15T20:36:38.908Z,66.73
2019-02-15T20:39:06.448Z,66.23
2019-02-15T20:41:34.701Z,62.13
2019-02-15T20:44:01.046Z,71.47
2019-02-15T20:46:28.197Z,50.60
2019-02-15T20:49:04.365Z,55.93
2019-02-15T20:51:24.681Z,56.53
2019-02-15T20:53:51.135Z,66.43
2019-02-15T20:56:17.534Z,71.33
2019-02-15T20:58:43.941Z,73.00
2019-02-15T21:01:10.348Z,62.47
2019-02-15T21:03:38.692Z,63.03
2019-02-15T21:06:05.151Z,57.53
2019-02-15T21:08:31.734Z,63.40
2019-02-15T21:10:58.185Z,65.80
2019-02-15T21:13:24.633Z,68.67
2019-02-15T21:15:51.210Z,63.00
2019-02-15T21:18:17.674Z,48.37
2019-02-15T21:20:44.027Z,34.57
2019-02-15T21:23:10.464Z,35.60
2019-02-15T21:25:37.250Z,35.13
2019-02-15T21:28:03.731Z,36.33
2019-02-15T21:30:30.588Z,36.70
2019-02-15T21:32:57.562Z,50.90
2019-02-15T21:35:24.195Z,44.63
2019-02-15T21:37:50.628Z,33.07
2019-02-15T21:40:17.666Z,30.07
2019-02-15T21:42:44.561Z,35.27
2019-02-15T21:45:11.259Z,48.20
2019-02-15T21:47:38.113Z,41.57
2019-02-15T21:50:16.385Z,40.53
2019-02-15T21:52:43.765Z,53.93
2019-02-15T21:55:07.447Z,68.77
2019-02-15T21:57:33.875Z,65.77
2019-02-15T22:00:00.374Z,63.73
2019-02-15T22:02:26.912Z,49.77
2019-02-15T22:04:53.836Z,54.87
2019-02-15T22:07:20.256Z,66.47
2019-02-15T22:09:46.687Z,58.67
2019-02-15T22:12:13.875Z,43.57
2019-02-15T22:14:42.294Z,45.87
2019-02-15T22:17:08.643Z,51.70
2019-02-15T22:19:35.074Z,47.10
2019-02-15T22:22:01.477Z,40.53
2019-02-15T22:24:27.859Z,40.70
2019-02-15T22:26:54.262Z,40.63
2019-02-15T22:29:20.711Z,37.43
2019-02-15T22:31:47.106Z,38.87
2019-02-15T22:34:13.633Z,34.63
2019-02-15T22:36:40.107Z,37.73
2019-02-15T22:39:06.538Z,36.07
2019-02-15T22:41:33.456Z,38.60
2019-02-15T22:43:59.908Z,38.27
2019-02-15T22:46:26.424Z,42.10
2019-02-15T22:48:52.821Z,45.07
2019-02-15T22:51:19.413Z,44.10
2019-02-15T22:53:46.940Z,37.47
2019-02-15T22:56:13.362Z,37.57
2019-02-15T22:58:39.809Z,37.97
2019-02-15T23:05:10.130Z,36.43
2019-02-15T23:07:36.660Z,30.43
2019-02-15T23:10:06.110Z,33.80
2019-02-15T23:12:33.363Z,32.47
2019-02-15T23:14:59.829Z,32.83
2019-02-15T23:17:27.390Z,32.20
2019-02-15T23:19:53.737Z,32.50
2019-02-15T23:22:20.152Z,32.83
2019-02-15T23:24:46.496Z,31.73
2019-02-15T23:27:12.896Z,33.60
2019-02-15T23:29:39.321Z,35.03
2019-02-15T23:32:05.710Z,31.83
2019-02-15T23:34:33.287Z,32.83
2019-02-15T23:36:59.707Z,34.07
2019-02-15T23:39:26.176Z,41.47
2019-02-15T23:41:52.550Z,36.47
2019-02-15T23:44:18.983Z,33.00
2019-02-15T23:46:46.369Z,33.20
2019-02-15T23:49:12.790Z,32.40
2019-02-15T23:51:39.128Z,30.30
2019-02-15T23:54:05.522Z,34.50
2019-02-15T23:56:32.988Z,33.53
2019-02-15T23:58:59.350Z,31.30
